createdAt,value
2023-04-19T00:01:46.226Z,9.88
2023-04-19T00:04:15.518Z,8.02
2023-04-19T00:06:43.915Z,8.02
2023-04-19T00:09:11.834Z,6.43
2023-04-19T00:11:41.941Z,5.47
2023-04-19T00:14:09.959Z,8.02
2023-04-19T00:16:37.949Z,5.85
2023-04-19T00:19:05.982Z,8.20
2023-04-19T00:21:33.823Z,7.00
2023-04-19T00:24:03.848Z,5.60
2023-04-19T00:26:31.785Z,8.02
2023-04-19T00:29:01.252Z,6.28
2023-04-19T00:31:29.285Z,4.20
2023-04-19T00:33:58.329Z,11.90
2023-04-19T00:36:28.006Z,5.70
2023-04-19T00:38:55.893Z,10.27
2023-04-19T00:41:23.812Z,5.35
2023-04-19T00:43:51.704Z,5.45
2023-04-19T00:46:21.579Z,4.28
2023-04-19T00:48:50.538Z,6.18
2023-04-19T00:51:18.622Z,4.30
2023-04-19T00:53:46.993Z,5.07
2023-04-19T00:56:16.251Z,7.05
2023-04-19T00:58:44.961Z,7.15
2023-04-19T01:01:12.973Z,5.20
2023-04-19T01:03:44.030Z,9.25
2023-04-19T01:06:12.184Z,4.20
2023-04-19T01:08:43.033Z,4.53
2023-04-19T01:11:11.046Z,4.60
2023-04-19T01:13:39.101Z,4.10
2023-04-19T01:16:08.329Z,7.22
2023-04-19T01:18:37.698Z,3.67
2023-04-19T01:21:09.173Z,5.05
2023-04-19T01:23:39.444Z,4.88
2023-04-19T01:26:07.527Z,7.25
2023-04-19T01:28:35.439Z,6.57
2023-04-19T01:31:03.831Z,5.10
2023-04-19T01:33:31.810Z,5.85
2023-04-19T01:35:59.732Z,8.43
2023-04-19T01:38:27.743Z,8.27
2023-04-19T01:40:57.328Z,7.90
2023-04-19T01:43:25.971Z,3.53
2023-04-19T01:45:53.896Z,8.40
2023-04-19T01:48:21.888Z,3.95
2023-04-19T01:50:49.779Z,8.63
2023-04-19T01:53:17.751Z,8.25
2023-04-19T01:55:45.683Z,5.10
2023-04-19T01:58:14.941Z,6.78
2023-04-19T02:00:42.990Z,7.13
2023-04-19T02:03:11.220Z,4.75
2023-04-19T02:05:40.263Z,7.65
2023-04-19T02:08:08.370Z,4.57
2023-04-19T02:10:36.209Z,6.97
2023-04-19T02:13:04.175Z,10.45
2023-04-19T02:15:33.494Z,7.75
2023-04-19T02:18:01.491Z,7.63
2023-04-19T02:20:29.500Z,3.42
2023-04-19T02:22:57.505Z,5.70
2023-04-19T02:25:25.456Z,7.22
2023-04-19T02:27:53.746Z,4.18
2023-04-19T02:30:22.025Z,7.78
2023-04-19T02:32:54.975Z,3.38
2023-04-19T02:35:23.087Z,5.38
2023-04-19T02:37:51.214Z,8.63
2023-04-19T02:40:19.719Z,5.10
2023-04-19T02:42:47.672Z,4.03
2023-04-19T02:45:15.672Z,4.78
2023-04-19T02:47:43.638Z,6.93
2023-04-19T02:50:13.629Z,5.72
2023-04-19T02:52:47.364Z,3.58
2023-04-19T02:55:15.390Z,6.18
2023-04-19T02:57:43.981Z,10.93
2023-04-19T03:00:13.997Z,5.97
2023-04-19T03:02:48.540Z,4.82
2023-04-19T03:05:18.047Z,3.95
2023-04-19T03:07:46.149Z,6.85
2023-04-19T03:10:14.120Z,4.78
2023-04-19T03:12:43.175Z,5.82
2023-04-19T03:15:12.004Z,3.40
2023-04-19T03:17:40.018Z,10.15
2023-04-19T03:20:11.563Z,3.90
2023-04-19T03:22:41.092Z,6.47
2023-04-19T03:25:12.467Z,5.50
2023-04-19T03:27:42.522Z,4.22
2023-04-19T03:30:14.426Z,5.43
2023-04-19T03:32:44.802Z,4.25
2023-04-19T03:35:14.043Z,5.55
2023-04-19T03:37:43.552Z,7.53
2023-04-19T03:40:12.303Z,5.38
2023-04-19T03:42:40.397Z,4.28
2023-04-19T03:45:14.005Z,4.70
2023-04-19T03:47:46.956Z,4.05
2023-04-19T03:50:14.953Z,4.28
2023-04-19T03:52:48.206Z,4.55
2023-04-19T03:55:16.222Z,8.70
2023-04-19T03:57:44.411Z,4.47
2023-04-19T04:00:21.115Z,5.28
2023-04-19T04:02:55.609Z,4.70
2023-04-19T04:05:24.069Z,5.93
2023-04-19T04:07:53.573Z,6.45
2023-04-19T04:10:22.999Z,3.90
2023-04-19T04:12:51.017Z,5.00
2023-04-19T04:15:25.854Z,6.05
2023-04-19T04:17:55.278Z,4.65
2023-04-19T04:20:23.258Z,7.53
2023-04-19T04:22:57.041Z,4.47
2023-04-19T04:25:25.940Z,7.30
2023-04-19T04:27:54.678Z,9.63
2023-04-19T04:30:27.693Z,7.90
2023-04-19T04:32:59.045Z,7.13
2023-04-19T04:35:28.992Z,7.25
2023-04-19T04:38:17.570Z,11.70
2023-04-19T04:40:53.765Z,3.80
2023-04-19T04:43:22.705Z,9.60
2023-04-19T04:45:51.081Z,4.13
2023-04-19T04:48:19.864Z,4.80
2023-04-19T04:50:47.925Z,5.30
2023-04-19T04:53:17.232Z,5.22
2023-04-19T04:55:46.908Z,5.93
2023-04-19T04:58:15.433Z,9.07
2023-04-19T05:00:53.161Z,3.25
2023-04-19T05:03:21.450Z,8.70
2023-04-19T05:05:56.379Z,8.48
2023-04-19T05:08:28.038Z,9.05
2023-04-19T05:11:10.316Z,10.40
2023-04-19T05:13:39.273Z,5.25
2023-04-19T05:16:07.637Z,6.00
2023-04-19T05:18:36.261Z,5.40
2023-04-19T05:21:04.488Z,3.90
2023-04-19T05:23:35.147Z,7.20
2023-04-19T05:26:03.094Z,9.85
2023-04-19T05:28:31.350Z,6.20
2023-04-19T05:31:10.128Z,9.80
2023-04-19T05:33:46.476Z,8.38
2023-04-19T05:36:15.382Z,7.03
2023-04-19T05:38:44.783Z,3.47
2023-04-19T05:41:13.698Z,6.88
2023-04-19T05:43:41.630Z,9.18
2023-04-19T05:46:10.179Z,7.35
2023-04-19T05:48:38.315Z,6.07
2023-04-19T05:51:31.862Z,9.48
2023-04-19T05:54:13.646Z,4.00
2023-04-19T05:56:45.735Z,3.85
2023-04-19T05:59:14.661Z,7.38
2023-04-19T06:01:42.920Z,2.92
2023-04-19T06:04:11.110Z,5.32
2023-04-19T06:06:39.797Z,5.03
2023-04-19T06:09:07.908Z,5.75
2023-04-19T06:11:46.979Z,7.47
2023-04-19T06:14:18.190Z,6.10
2023-04-19T06:16:46.658Z,5.53
2023-04-19T06:19:14.781Z,4.55
2023-04-19T06:21:42.719Z,5.43
2023-04-19T06:24:10.928Z,6.85
2023-04-19T06:26:40.254Z,5.03
2023-04-19T06:29:08.144Z,8.05
2023-04-19T06:31:36.188Z,4.60
2023-04-19T06:34:04.112Z,4.55
2023-04-19T06:36:32.133Z,5.90
2023-04-19T06:39:00.118Z,5.40
2023-04-19T06:41:28.034Z,7.63
2023-04-19T06:43:57.243Z,3.28
2023-04-19T06:46:25.270Z,12.93
2023-04-19T06:48:53.427Z,5.10
2023-04-19T06:51:21.374Z,3.22
2023-04-19T06:53:50.635Z,4.35
2023-04-19T06:56:18.582Z,4.68
2023-04-19T06:58:46.433Z,7.45
2023-04-19T07:01:15.762Z,5.85
2023-04-19T07:03:43.892Z,4.40
2023-04-19T07:06:11.856Z,2.90
2023-04-19T07:08:49.385Z,4.22
2023-04-19T07:11:20.268Z,5.07
2023-04-19T07:13:49.112Z,7.93
2023-04-19T07:16:18.538Z,6.32
2023-04-19T07:18:46.463Z,5.10
2023-04-19T07:21:14.522Z,4.78
2023-04-19T07:23:42.558Z,7.22
2023-04-19T07:26:10.622Z,5.35
2023-04-19T07:28:40.240Z,7.80
2023-04-19T07:31:08.201Z,4.32
2023-04-19T07:33:37.575Z,4.47
2023-04-19T07:36:06.658Z,4.90
2023-04-19T07:38:34.496Z,5.38
2023-04-19T07:41:02.490Z,4.45
2023-04-19T07:43:31.355Z,4.85
2023-04-19T07:45:59.280Z,4.68
2023-04-19T07:48:27.242Z,4.20
2023-04-19T07:50:56.571Z,4.18
2023-04-19T07:53:24.491Z,7.43
2023-04-19T07:55:52.884Z,6.78
2023-04-19T07:58:20.909Z,4.25
2023-04-19T08:00:48.846Z,5.53
2023-04-19T08:03:16.984Z,3.10
2023-04-19T08:05:45.119Z,5.72
2023-04-19T08:08:14.414Z,4.90
2023-04-19T08:10:42.320Z,3.78
2023-04-19T08:13:10.421Z,3.15
2023-04-19T08:16:20.493Z,3.60
2023-04-19T08:18:26.669Z,6.72
2023-04-19T08:20:55.688Z,8.13
2023-04-19T08:23:31.801Z,5.35
2023-04-19T08:26:02.906Z,4.35
2023-04-19T08:28:31.327Z,4.47
2023-04-19T08:31:00.457Z,8.60
2023-04-19T08:33:29.741Z,6.13
2023-04-19T08:35:57.639Z,5.13
2023-04-19T08:38:26.895Z,7.15
2023-04-19T08:40:56.175Z,5.57
2023-04-19T08:43:28.729Z,6.78
2023-04-19T08:45:57.691Z,7.87
2023-04-19T08:48:26.533Z,4.30
2023-04-19T08:51:04.938Z,8.48
2023-04-19T08:53:36.583Z,11.00
2023-04-19T08:56:20.632Z,7.20
2023-04-19T08:59:00.997Z,6.43
2023-04-19T09:01:41.579Z,5.53
2023-04-19T09:04:34.917Z,8.82
2023-04-19T09:06:58.859Z,7.47
2023-04-19T09:12:01.538Z,5.47
2023-04-19T09:14:30.190Z,9.35
2023-04-19T09:17:15.722Z,4.95
2023-04-19T09:19:47.930Z,7.00
2023-04-19T09:22:16.558Z,2.70
2023-04-19T09:25:22.729Z,5.97
2023-04-19T09:27:36.338Z,4.95
2023-04-19T09:30:06.689Z,8.10
2023-04-19T09:32:47.631Z,6.47
2023-04-19T09:35:15.964Z,5.43
2023-04-19T09:40:26.875Z,6.28
2023-04-19T09:43:07.340Z,8.55
2023-04-19T09:45:44.945Z,3.63
2023-04-19T09:48:13.887Z,6.95
2023-04-19T09:50:57.445Z,8.50
2023-04-19T09:53:29.227Z,4.75
2023-04-19T09:56:02.114Z,6.18
2023-04-19T09:58:42.529Z,10.63
2023-04-19T10:01:18.561Z,4.13
2023-04-19T10:03:49.885Z,7.93
2023-04-19T10:08:51.797Z,6.22
2023-04-19T10:11:22.980Z,7.45
2023-04-19T10:13:56.315Z,5.95
2023-04-19T10:18:53.360Z,6.85
2023-04-19T10:21:21.675Z,7.70
2023-04-19T10:23:50.239Z,8.88
2023-04-19T10:26:18.161Z,8.30
2023-04-19T10:28:49.538Z,9.90
2023-04-19T10:31:23.612Z,6.88
2023-04-19T10:33:52.516Z,11.75
2023-04-19T10:36:22.217Z,6.78
2023-04-19T10:38:52.263Z,12.13
2023-04-19T10:41:20.897Z,8.65
2023-04-19T10:44:10.925Z,7.80
2023-04-19T10:46:41.006Z,8.35
2023-04-19T10:49:10.010Z,11.10
2023-04-19T10:51:39.771Z,5.90
2023-04-19T10:54:08.530Z,7.97
2023-04-19T10:57:00.108Z,5.72
2023-04-19T10:59:31.191Z,7.15
2023-04-19T11:02:00.981Z,11.55
2023-04-19T11:05:01.777Z,7.97
2023-04-19T11:07:29.955Z,9.10
2023-04-19T11:09:57.875Z,7.65
2023-04-19T11:12:25.824Z,8.82
2023-04-19T11:14:59.897Z,9.38
2023-04-19T11:17:31.520Z,11.15
2023-04-19T11:20:01.189Z,17.73
2023-04-19T11:22:33.660Z,11.30
2023-04-19T11:25:09.595Z,7.13
2023-04-19T11:27:38.610Z,18.25
2023-04-19T11:30:11.448Z,18.02
2023-04-19T11:32:48.235Z,10.80
2023-04-19T11:35:16.928Z,7.07
2023-04-19T11:37:44.786Z,10.38
2023-04-19T11:40:16.894Z,7.20
2023-04-19T11:42:45.247Z,9.38
2023-04-19T11:45:30.162Z,11.45
2023-04-19T11:48:00.989Z,14.52
2023-04-19T11:50:37.112Z,9.63
2023-04-19T11:53:13.579Z,11.02
2023-04-19T11:55:44.431Z,5.80
2023-04-19T11:58:29.327Z,8.15
2023-04-19T12:01:06.691Z,8.27
2023-04-19T12:03:35.697Z,12.05
2023-04-19T12:06:05.098Z,12.25
2023-04-19T12:08:34.189Z,7.00
2023-04-19T12:11:03.391Z,7.65
2023-04-19T12:13:32.583Z,8.60
2023-04-19T12:16:02.489Z,11.95
2023-04-19T12:18:44.565Z,11.07
2023-04-19T12:21:12.796Z,7.32
2023-04-19T12:23:40.670Z,7.97
2023-04-19T12:26:08.601Z,11.48
2023-04-19T12:28:36.567Z,8.23
2023-04-19T12:31:06.486Z,7.78
2023-04-19T12:33:34.348Z,11.95
2023-04-19T12:36:02.248Z,9.75
2023-04-19T12:38:30.143Z,8.90
2023-04-19T12:40:58.041Z,7.10
2023-04-19T12:43:25.951Z,7.57
2023-04-19T12:45:54.212Z,7.45
2023-04-19T12:48:23.712Z,6.85
2023-04-19T12:50:51.975Z,7.20
2023-04-19T12:53:20.098Z,14.52
2023-04-19T12:55:49.662Z,9.85
2023-04-19T12:58:18.636Z,7.68
2023-04-19T13:00:46.568Z,10.25
2023-04-19T13:03:14.842Z,7.78
2023-04-19T13:05:44.197Z,12.93
2023-04-19T13:08:12.112Z,12.60
2023-04-19T13:10:40.113Z,9.77
2023-04-19T13:13:08.009Z,6.70
2023-04-19T13:15:36.083Z,6.55
2023-04-19T13:18:04.149Z,7.05
2023-04-19T13:20:32.022Z,8.88
2023-04-19T13:23:01.265Z,7.72
2023-04-19T13:25:29.163Z,14.27
2023-04-19T13:27:56.995Z,12.07
2023-04-19T13:30:25.157Z,8.70
2023-04-19T13:32:52.993Z,8.23
2023-04-19T13:35:21.803Z,14.10
2023-04-19T13:37:51.170Z,12.02
2023-04-19T13:40:20.672Z,14.25
2023-04-19T13:42:48.646Z,16.42
2023-04-19T13:45:16.582Z,14.23
2023-04-19T13:47:44.598Z,12.38
2023-04-19T13:50:13.081Z,10.23
2023-04-19T13:52:41.147Z,8.77
2023-04-19T13:55:09.940Z,9.93
2023-04-19T13:57:39.201Z,5.18
2023-04-19T14:00:08.648Z,8.70
2023-04-19T14:02:36.936Z,12.68
2023-04-19T14:05:05.580Z,5.32
2023-04-19T14:07:33.878Z,6.80
2023-04-19T14:10:02.038Z,4.40
2023-04-19T14:12:29.906Z,7.80
2023-04-19T14:14:59.288Z,8.80
2023-04-19T14:17:27.383Z,8.25
2023-04-19T14:19:55.264Z,7.00
2023-04-19T14:22:23.213Z,4.93
2023-04-19T14:24:51.137Z,6.03
2023-04-19T14:27:19.232Z,8.68
2023-04-19T14:29:47.281Z,10.63
2023-04-19T14:32:26.149Z,15.80
2023-04-19T14:34:55.785Z,11.43
2023-04-19T14:37:24.804Z,9.57
2023-04-19T14:39:52.785Z,14.88
2023-04-19T14:42:22.923Z,8.85
2023-04-19T14:44:52.518Z,14.23
2023-04-19T14:47:22.468Z,8.43
2023-04-19T14:49:50.629Z,11.52
2023-04-19T14:52:18.501Z,14.05
2023-04-19T14:54:46.433Z,9.70
2023-04-19T14:57:14.513Z,6.05
2023-04-19T14:59:42.481Z,9.70
2023-04-19T15:02:13.248Z,13.05
2023-04-19T15:04:43.111Z,10.02
2023-04-19T15:07:11.489Z,10.95
2023-04-19T15:09:40.394Z,10.98
2023-04-19T15:12:08.702Z,8.88
2023-04-19T15:14:37.027Z,9.90
2023-04-19T15:17:05.228Z,12.15
2023-04-19T15:19:33.502Z,8.30
2023-04-19T15:22:04.182Z,13.00
2023-04-19T15:24:33.009Z,11.43
2023-04-19T15:27:01.611Z,14.80
2023-04-19T15:29:30.075Z,12.05
2023-04-19T15:31:58.196Z,10.27
2023-04-19T15:34:26.329Z,9.63
2023-04-19T15:36:54.222Z,10.65
2023-04-19T15:39:23.468Z,12.07
2023-04-19T15:41:52.133Z,11.27
2023-04-19T15:44:20.067Z,11.48
2023-04-19T15:46:47.982Z,9.05
2023-04-19T15:49:16.165Z,11.05
2023-04-19T15:51:44.285Z,11.68
2023-04-19T15:54:12.237Z,10.65
2023-04-19T15:56:41.497Z,8.13
2023-04-19T15:59:09.387Z,12.20
2023-04-19T16:01:37.317Z,7.93
2023-04-19T16:04:05.696Z,10.40
2023-04-19T16:06:33.814Z,11.27
2023-04-19T16:09:01.708Z,16.40
2023-04-19T16:11:29.928Z,11.10
2023-04-19T16:13:59.169Z,10.50
2023-04-19T16:16:30.859Z,15.30
2023-04-19T16:18:58.862Z,8.68
2023-04-19T16:21:28.630Z,11.77
2023-04-19T16:23:56.840Z,14.98
2023-04-19T16:26:24.854Z,11.70
2023-04-19T16:28:52.718Z,17.17
2023-04-19T16:31:21.952Z,11.65
2023-04-19T16:33:49.826Z,11.68
2023-04-19T16:36:17.970Z,14.05
2023-04-19T16:38:45.834Z,13.43
2023-04-19T16:41:13.793Z,16.92
2023-04-19T16:43:41.629Z,13.20
2023-04-19T16:46:09.598Z,14.65
2023-04-19T16:48:38.826Z,12.32
2023-04-19T16:51:06.922Z,14.10
2023-04-19T16:53:34.777Z,14.32
2023-04-19T16:56:03.614Z,18.17
2023-04-19T16:58:31.735Z,12.75
2023-04-19T17:00:59.726Z,13.13
2023-04-19T17:03:29.448Z,12.15
2023-04-19T17:05:59.216Z,21.48
2023-04-19T17:08:27.176Z,10.85
2023-04-19T17:10:55.074Z,22.45
2023-04-19T17:13:22.991Z,13.57
2023-04-19T17:15:50.916Z,13.85
2023-04-19T17:18:18.857Z,11.88
2023-04-19T17:20:46.709Z,10.55
2023-04-19T17:23:15.987Z,15.95
2023-04-19T17:25:44.162Z,17.70
2023-04-19T17:28:12.043Z,10.15
2023-04-19T17:30:39.923Z,16.02
2023-04-19T17:33:07.883Z,11.77
2023-04-19T17:35:36.050Z,9.95
2023-04-19T17:38:03.952Z,18.25
2023-04-19T17:40:33.166Z,15.98
2023-04-19T17:43:00.985Z,11.13
2023-04-19T17:45:29.143Z,9.93
2023-04-19T17:47:57.057Z,13.85
2023-04-19T17:50:26.382Z,11.82
2023-04-19T17:52:55.004Z,11.57
2023-04-19T17:55:23.039Z,13.63
2023-04-19T17:57:52.318Z,10.07
2023-04-19T18:00:20.643Z,15.25
2023-04-19T18:02:49.575Z,5.80
2023-04-19T18:05:18.341Z,10.65
2023-04-19T18:07:46.284Z,8.15
2023-04-19T18:10:14.119Z,9.52
2023-04-19T18:12:42.011Z,10.48
2023-04-19T18:15:12.455Z,13.20
2023-04-19T18:17:41.148Z,7.95
2023-04-19T18:20:11.288Z,9.07
2023-04-19T18:22:41.076Z,8.68
2023-04-19T18:25:09.762Z,8.02
2023-04-19T18:27:37.644Z,8.55
2023-04-19T18:30:07.966Z,12.77
2023-04-19T18:32:37.463Z,8.40
2023-04-19T18:35:08.714Z,13.32
2023-04-19T18:37:36.715Z,8.80
2023-04-19T18:40:06.992Z,9.32
2023-04-19T18:42:34.976Z,10.13
2023-04-19T18:45:04.138Z,9.77
2023-04-19T18:47:32.185Z,7.80
2023-04-19T18:50:05.977Z,10.60
2023-04-19T18:52:35.433Z,10.23
2023-04-19T18:55:03.708Z,11.90
2023-04-19T18:57:34.482Z,12.60
2023-04-19T19:00:05.577Z,17.23
2023-04-19T19:02:36.065Z,13.23
2023-04-19T19:05:07.393Z,13.82
2023-04-19T19:07:37.136Z,11.40
2023-04-19T19:10:18.500Z,13.70
2023-04-19T19:12:50.039Z,13.98
2023-04-19T19:15:18.140Z,12.45
2023-04-19T19:17:49.845Z,19.50
2023-04-19T19:20:19.991Z,11.98
2023-04-19T19:22:48.301Z,15.50
2023-04-19T19:25:16.302Z,12.40
2023-04-19T19:27:58.373Z,12.13
2023-04-19T19:30:33.882Z,10.77
2023-04-19T19:33:05.022Z,11.65
2023-04-19T19:35:34.414Z,14.82
2023-04-19T19:38:02.219Z,14.63
2023-04-19T19:40:32.371Z,16.08
2023-04-19T19:43:01.256Z,16.80
2023-04-19T19:45:29.652Z,12.50
2023-04-19T19:47:59.096Z,14.77
2023-04-19T19:51:02.137Z,17.55
2023-04-19T19:53:19.253Z,15.23
2023-04-19T19:55:47.221Z,21.83
2023-04-19T19:58:32.626Z,19.38
2023-04-19T20:01:03.940Z,19.40
2023-04-19T20:03:37.557Z,17.90
2023-04-19T20:08:43.699Z,19.73
2023-04-19T20:11:11.952Z,20.60
2023-04-19T20:13:39.804Z,17.73
2023-04-19T20:16:07.748Z,17.67
2023-04-19T20:18:37.793Z,19.30
2023-04-19T20:21:05.710Z,18.45
2023-04-19T20:23:33.566Z,19.60
2023-04-19T20:26:02.810Z,17.73
2023-04-19T20:28:30.669Z,15.77
2023-04-19T20:30:58.578Z,18.77
2023-04-19T20:33:28.195Z,26.02
2023-04-19T20:35:56.753Z,18.85
2023-04-19T20:38:26.490Z,16.15
2023-04-19T20:40:54.728Z,23.42
2023-04-19T20:43:23.991Z,16.95
2023-04-19T20:45:52.105Z,17.02
2023-04-19T20:48:19.939Z,17.27
2023-04-19T20:50:47.756Z,21.50
2023-04-19T20:53:15.658Z,20.85
2023-04-19T20:55:43.618Z,17.75
2023-04-19T20:58:11.911Z,24.85
2023-04-19T21:00:41.155Z,17.80
2023-04-19T21:03:09.143Z,17.45
2023-04-19T21:05:37.084Z,16.52
2023-04-19T21:08:05.297Z,18.92
2023-04-19T21:10:33.218Z,20.30
2023-04-19T21:13:01.134Z,18.23
2023-04-19T21:15:29.367Z,16.02
2023-04-19T21:17:58.689Z,21.88
2023-04-19T21:20:26.815Z,18.33
2023-04-19T21:22:54.692Z,17.17
2023-04-19T21:25:22.719Z,21.00
2023-04-19T21:27:50.568Z,17.20
2023-04-19T21:30:18.507Z,18.63
2023-04-19T21:32:46.561Z,14.60
2023-04-19T21:35:15.898Z,18.25
2023-04-19T21:37:43.857Z,15.18
2023-04-19T21:40:12.380Z,14.00
2023-04-19T21:42:40.308Z,14.35
2023-04-19T21:45:09.191Z,18.00
2023-04-19T21:47:37.099Z,20.45
2023-04-19T21:50:05.496Z,18.55
2023-04-19T21:52:34.747Z,18.23
2023-04-19T21:55:02.627Z,17.48
2023-04-19T21:57:31.056Z,18.88
2023-04-19T21:59:59.033Z,15.20
2023-04-19T22:02:27.061Z,14.38
2023-04-19T22:04:54.970Z,14.48
2023-04-19T22:07:23.959Z,12.55
2023-04-19T22:09:54.330Z,14.93
2023-04-19T22:12:22.200Z,14.82
2023-04-19T22:14:50.086Z,13.00
2023-04-19T22:17:19.224Z,14.70
2023-04-19T22:19:47.635Z,16.23
2023-04-19T22:22:15.671Z,13.45
2023-04-19T22:24:56.145Z,16.67
2023-04-19T22:27:26.817Z,13.48
2023-04-19T22:29:54.742Z,12.50
2023-04-19T22:32:22.947Z,12.05
2023-04-19T22:34:51.077Z,13.45
2023-04-19T22:37:18.972Z,12.77
2023-04-19T22:39:46.897Z,14.60
2023-04-19T22:42:14.906Z,17.92
2023-04-19T22:44:44.198Z,11.85
2023-04-19T22:47:13.120Z,16.27
2023-04-19T22:49:43.072Z,15.70
2023-04-19T22:52:11.719Z,11.63
2023-04-19T22:54:39.674Z,10.88
2023-04-19T22:57:07.575Z,10.23
2023-04-19T22:59:35.490Z,15.90
2023-04-19T23:02:04.842Z,7.60
2023-04-19T23:04:35.108Z,11.05
2023-04-19T23:07:03.815Z,11.88
2023-04-19T23:09:31.687Z,10.43
2023-04-19T23:12:00.498Z,11.55
2023-04-19T23:14:28.407Z,10.40
2023-04-19T23:16:57.120Z,10.80
2023-04-19T23:19:26.381Z,13.88
2023-04-19T23:21:54.259Z,12.10
2023-04-19T23:24:22.186Z,10.88
2023-04-19T23:26:50.060Z,12.18
2023-04-19T23:29:18.161Z,10.73
2023-04-19T23:31:46.355Z,12.20
2023-04-19T23:34:14.983Z,9.82
2023-04-19T23:36:44.280Z,10.30
2023-04-19T23:39:12.334Z,10.93
2023-04-19T23:41:40.234Z,9.77
2023-04-19T23:44:08.156Z,12.77
2023-04-19T23:46:36.424Z,8.38
2023-04-19T23:49:04.266Z,9.63
2023-04-19T23:51:32.882Z,10.30
2023-04-19T23:54:02.083Z,13.32
2023-04-19T23:56:30.032Z,12.18
2023-04-19T23:58:58.462Z,10.88
